sensor_id;sensor_type;location;lat;lon;timestamp;P1;durP1;ratioP1;P2;durP2;ratioP2
11010;SDS011;5558;42.702;23.178;2022-10-16T00:02:02;6.47;;;5.87;;
11010;SDS011;5558;42.702;23.178;2022-10-16T00:04:29;7.53;;;6.80;;
11010;SDS011;5558;42.702;23.178;2022-10-16T00:06:55;7.60;;;6.80;;
11010;SDS011;5558;42.702;23.178;2022-10-16T00:09:22;9.20;;;8.27;;
11010;SDS011;5558;42.702;23.178;2022-10-16T00:11:48;12.60;;;11.40;;
11010;SDS011;5558;42.702;23.178;2022-10-16T00:14:17;8.93;;;8.03;;
11010;SDS011;5558;42.702;23.178;2022-10-16T00:16:43;7.53;;;6.80;;
11010;SDS011;5558;42.702;23.178;2022-10-16T00:19:10;8.67;;;7.30;;
11010;SDS011;5558;42.702;23.178;2022-10-16T00:21:37;7.63;;;6.83;;
11010;SDS011;5558;42.702;23.178;2022-10-16T00:24:05;7.67;;;6.67;;
11010;SDS011;5558;42.702;23.178;2022-10-16T00:26:34;10.27;;;8.70;;
11010;SDS011;5558;42.702;23.178;2022-10-16T00:29:02;14.63;;;11.03;;
11010;SDS011;5558;42.702;23.178;2022-10-16T00:31:31;11.70;;;9.00;;
11010;SDS011;5558;42.702;23.178;2022-10-16T00:33:58;11.30;;;9.00;;
11010;SDS011;5558;42.702;23.178;2022-10-16T00:36:25;9.40;;;7.70;;
11010;SDS011;5558;42.702;23.178;2022-10-16T00:38:53;8.57;;;6.83;;
11010;SDS011;5558;42.702;23.178;2022-10-16T00:41:23;7.60;;;6.80;;
11010;SDS011;5558;42.702;23.178;2022-10-16T00:43:51;7.40;;;6.70;;
11010;SDS011;5558;42.702;23.178;2022-10-16T00:46:20;6.70;;;5.83;;
11010;SDS011;5558;42.702;23.178;2022-10-16T00:48:50;7.10;;;6.40;;
11010;SDS011;5558;42.702;23.178;2022-10-16T00:51:23;6.90;;;6.00;;
11010;SDS011;5558;42.702;23.178;2022-10-16T00:53:52;6.73;;;6.13;;
11010;SDS011;5558;42.702;23.178;2022-10-16T00:56:18;6.37;;;5.77;;
11010;SDS011;5558;42.702;23.178;2022-10-16T00:58:45;7.73;;;6.20;;
11010;SDS011;5558;42.702;23.178;2022-10-16T01:01:12;6.23;;;5.63;;
11010;SDS011;5558;42.702;23.178;2022-10-16T01:03:39;6.40;;;5.80;;
11010;SDS011;5558;42.702;23.178;2022-10-16T01:06:11;6.50;;;5.90;;
11010;SDS011;5558;42.702;23.178;2022-10-16T01:08:50;8.07;;;7.30;;
11010;SDS011;5558;42.702;23.178;2022-10-16T01:11:25;6.97;;;6.37;;
11010;SDS011;5558;42.702;23.178;2022-10-16T01:14:00;7.53;;;6.83;;
11010;SDS011;5558;42.702;23.178;2022-10-16T01:16:34;7.27;;;6.57;;
11010;SDS011;5558;42.702;23.178;2022-10-16T01:19:09;7.50;;;6.70;;
11010;SDS011;5558;42.702;23.178;2022-10-16T01:21:41;7.10;;;6.40;;
11010;SDS011;5558;42.702;23.178;2022-10-16T01:24:15;7.83;;;6.90;;
11010;SDS011;5558;42.702;23.178;2022-10-16T01:29:48;7.07;;;6.37;;
11010;SDS011;5558;42.702;23.178;2022-10-16T01:32:20;6.70;;;6.10;;
11010;SDS011;5558;42.702;23.178;2022-10-16T01:34:54;6.73;;;6.13;;
11010;SDS011;5558;42.702;23.178;2022-10-16T01:37:29;6.93;;;6.23;;
11010;SDS011;5558;42.702;23.178;2022-10-16T01:40:02;7.60;;;6.80;;
11010;SDS011;5558;42.702;23.178;2022-10-16T01:42:35;7.77;;;6.97;;
11010;SDS011;5558;42.702;23.178;2022-10-16T01:45:05;7.60;;;6.80;;
11010;SDS011;5558;42.702;23.178;2022-10-16T01:47:36;7.83;;;7.03;;
11010;SDS011;5558;42.702;23.178;2022-10-16T01:50:04;6.90;;;6.23;;
11010;SDS011;5558;42.702;23.178;2022-10-16T01:52:34;8.53;;;6.57;;
11010;SDS011;5558;42.702;23.178;2022-10-16T01:55:04;7.13;;;6.43;;
11010;SDS011;5558;42.702;23.178;2022-10-16T01:57:35;7.47;;;6.67;;
11010;SDS011;5558;42.702;23.178;2022-10-16T02:00:06;7.30;;;6.60;;
11010;SDS011;5558;42.702;23.178;2022-10-16T02:02:36;6.97;;;6.27;;
11010;SDS011;5558;42.702;23.178;2022-10-16T02:05:08;7.80;;;6.90;;
11010;SDS011;5558;42.702;23.178;2022-10-16T02:07:41;8.17;;;6.70;;
11010;SDS011;5558;42.702;23.178;2022-10-16T02:10:08;7.87;;;7.07;;
11010;SDS011;5558;42.702;23.178;2022-10-16T02:12:37;7.97;;;7.13;;
11010;SDS011;5558;42.702;23.178;2022-10-16T02:15:07;7.50;;;6.80;;
11010;SDS011;5558;42.702;23.178;2022-10-16T02:17:34;8.70;;;6.80;;
11010;SDS011;5558;42.702;23.178;2022-10-16T02:20:01;7.90;;;6.67;;
11010;SDS011;5558;42.702;23.178;2022-10-16T02:22:30;7.30;;;6.60;;
11010;SDS011;5558;42.702;23.178;2022-10-16T02:25:01;7.57;;;6.87;;
11010;SDS011;5558;42.702;23.178;2022-10-16T02:27:33;7.87;;;7.00;;
11010;SDS011;5558;42.702;23.178;2022-10-16T02:30:07;8.03;;;7.23;;
11010;SDS011;5558;42.702;23.178;2022-10-16T02:32:39;9.10;;;7.47;;
11010;SDS011;5558;42.702;23.178;2022-10-16T02:35:09;7.17;;;6.40;;
11010;SDS011;5558;42.702;23.178;2022-10-16T02:37:36;7.97;;;7.10;;
11010;SDS011;5558;42.702;23.178;2022-10-16T02:40:05;7.83;;;7.03;;
11010;SDS011;5558;42.702;23.178;2022-10-16T02:42:33;7.30;;;6.60;;
11010;SDS011;5558;42.702;23.178;2022-10-16T02:45:01;6.97;;;6.27;;
11010;SDS011;5558;42.702;23.178;2022-10-16T02:47:29;7.00;;;6.30;;
11010;SDS011;5558;42.702;23.178;2022-10-16T02:49:55;7.40;;;6.70;;
11010;SDS011;5558;42.702;23.178;2022-10-16T02:52:22;7.43;;;6.40;;
11010;SDS011;5558;42.702;23.178;2022-10-16T02:54:49;7.40;;;6.70;;
11010;SDS011;5558;42.702;23.178;2022-10-16T02:57:16;7.43;;;6.73;;
11010;SDS011;5558;42.702;23.178;2022-10-16T02:59:43;8.03;;;6.90;;
11010;SDS011;5558;42.702;23.178;2022-10-16T03:02:10;8.03;;;7.23;;
11010;SDS011;5558;42.702;23.178;2022-10-16T03:04:38;8.27;;;7.47;;
11010;SDS011;5558;42.702;23.178;2022-10-16T03:07:05;8.00;;;6.90;;
11010;SDS011;5558;42.702;23.178;2022-10-16T03:09:32;9.97;;;8.30;;
11010;SDS011;5558;42.702;23.178;2022-10-16T03:11:59;12.10;;;8.77;;
11010;SDS011;5558;42.702;23.178;2022-10-16T03:14:26;10.03;;;8.17;;
11010;SDS011;5558;42.702;23.178;2022-10-16T03:16:52;8.97;;;7.70;;
11010;SDS011;5558;42.702;23.178;2022-10-16T03:19:19;8.90;;;7.50;;
11010;SDS011;5558;42.702;23.178;2022-10-16T03:21:47;8.20;;;7.30;;
11010;SDS011;5558;42.702;23.178;2022-10-16T03:24:14;7.43;;;6.73;;
11010;SDS011;5558;42.702;23.178;2022-10-16T03:26:41;7.60;;;6.90;;
11010;SDS011;5558;42.702;23.178;2022-10-16T03:29:07;7.43;;;6.63;;
11010;SDS011;5558;42.702;23.178;2022-10-16T03:31:34;7.60;;;6.80;;
11010;SDS011;5558;42.702;23.178;2022-10-16T03:34:01;7.40;;;6.70;;
11010;SDS011;5558;42.702;23.178;2022-10-16T03:36:28;7.20;;;6.50;;
11010;SDS011;5558;42.702;23.178;2022-10-16T03:38:56;7.77;;;6.77;;
11010;SDS011;5558;42.702;23.178;2022-10-16T03:41:22;8.83;;;6.90;;
11010;SDS011;5558;42.702;23.178;2022-10-16T03:43:49;7.07;;;6.37;;
11010;SDS011;5558;42.702;23.178;2022-10-16T03:46:16;7.23;;;6.53;;
11010;SDS011;5558;42.702;23.178;2022-10-16T03:48:42;7.43;;;6.53;;
11010;SDS011;5558;42.702;23.178;2022-10-16T03:51:09;7.77;;;6.97;;
11010;SDS011;5558;42.702;23.178;2022-10-16T03:53:36;7.87;;;6.90;;
11010;SDS011;5558;42.702;23.178;2022-10-16T03:56:04;7.10;;;6.40;;
11010;SDS011;5558;42.702;23.178;2022-10-16T03:58:31;7.27;;;6.57;;
11010;SDS011;5558;42.702;23.178;2022-10-16T04:00:58;8.13;;;7.07;;
11010;SDS011;5558;42.702;23.178;2022-10-16T04:03:24;8.73;;;7.60;;
11010;SDS011;5558;42.702;23.178;2022-10-16T04:05:51;9.30;;;8.37;;
11010;SDS011;5558;42.702;23.178;2022-10-16T04:08:18;9.73;;;8.83;;
11010;SDS011;5558;42.702;23.178;2022-10-16T04:10:44;10.77;;;9.60;;
11010;SDS011;5558;42.702;23.178;2022-10-16T04:13:13;18.90;;;14.90;;
11010;SDS011;5558;42.702;23.178;2022-10-16T04:15:39;15.03;;;12.50;;
11010;SDS011;5558;42.702;23.178;2022-10-16T04:18:06;17.13;;;13.87;;
11010;SDS011;5558;42.702;23.178;2022-10-16T04:20:33;16.27;;;12.60;;
11010;SDS011;5558;42.702;23.178;2022-10-16T04:23:00;19.37;;;14.13;;
11010;SDS011;5558;42.702;23.178;2022-10-16T04:25:26;36.30;;;25.93;;
11010;SDS011;5558;42.702;23.178;2022-10-16T04:27:53;28.80;;;21.30;;
11010;SDS011;5558;42.702;23.178;2022-10-16T04:30:22;27.07;;;18.87;;
11010;SDS011;5558;42.702;23.178;2022-10-16T04:32:49;25.63;;;18.13;;
11010;SDS011;5558;42.702;23.178;2022-10-16T04:35:16;15.47;;;11.53;;
11010;SDS011;5558;42.702;23.178;2022-10-16T04:37:42;36.07;;;28.77;;
11010;SDS011;5558;42.702;23.178;2022-10-16T04:40:09;16.80;;;12.67;;
11010;SDS011;5558;42.702;23.178;2022-10-16T04:42:36;10.13;;;8.77;;
11010;SDS011;5558;42.702;23.178;2022-10-16T04:45:03;13.97;;;12.50;;
11010;SDS011;5558;42.702;23.178;2022-10-16T04:47:32;13.80;;;12.40;;
11010;SDS011;5558;42.702;23.178;2022-10-16T04:49:59;10.00;;;8.93;;
11010;SDS011;5558;42.702;23.178;2022-10-16T04:52:26;9.37;;;8.00;;
11010;SDS011;5558;42.702;23.178;2022-10-16T04:54:53;8.50;;;7.70;;
11010;SDS011;5558;42.702;23.178;2022-10-16T04:57:21;8.57;;;7.67;;
11010;SDS011;5558;42.702;23.178;2022-10-16T04:59:48;9.20;;;8.30;;
11010;SDS011;5558;42.702;23.178;2022-10-16T05:02:14;9.43;;;8.50;;
11010;SDS011;5558;42.702;23.178;2022-10-16T05:04:42;7.80;;;7.10;;
11010;SDS011;5558;42.702;23.178;2022-10-16T05:07:09;7.90;;;7.00;;
11010;SDS011;5558;42.702;23.178;2022-10-16T05:09:36;7.27;;;6.57;;
11010;SDS011;5558;42.702;23.178;2022-10-16T05:12:02;7.07;;;6.10;;
11010;SDS011;5558;42.702;23.178;2022-10-16T05:14:30;7.00;;;6.30;;
11010;SDS011;5558;42.702;23.178;2022-10-16T05:16:57;7.30;;;6.60;;
11010;SDS011;5558;42.702;23.178;2022-10-16T05:19:23;7.40;;;6.40;;
11010;SDS011;5558;42.702;23.178;2022-10-16T05:21:51;6.43;;;5.60;;
11010;SDS011;5558;42.702;23.178;2022-10-16T05:24:18;6.80;;;5.40;;
11010;SDS011;5558;42.702;23.178;2022-10-16T05:26:45;8.00;;;5.70;;
11010;SDS011;5558;42.702;23.178;2022-10-16T05:29:12;8.17;;;7.40;;
11010;SDS011;5558;42.702;23.178;2022-10-16T05:31:39;7.80;;;7.10;;
11010;SDS011;5558;42.702;23.178;2022-10-16T05:34:05;6.30;;;5.70;;
11010;SDS011;5558;42.702;23.178;2022-10-16T05:36:32;5.57;;;4.50;;
11010;SDS011;5558;42.702;23.178;2022-10-16T05:39:00;5.63;;;4.50;;
11010;SDS011;5558;42.702;23.178;2022-10-16T05:41:27;4.87;;;4.20;;
11010;SDS011;5558;42.702;23.178;2022-10-16T05:43:53;4.67;;;4.27;;
11010;SDS011;5558;42.702;23.178;2022-10-16T05:46:20;4.70;;;4.30;;
11010;SDS011;5558;42.702;23.178;2022-10-16T05:48:47;6.27;;;4.00;;
11010;SDS011;5558;42.702;23.178;2022-10-16T05:51:14;4.80;;;4.20;;
11010;SDS011;5558;42.702;23.178;2022-10-16T05:53:41;4.20;;;3.80;;
11010;SDS011;5558;42.702;23.178;2022-10-16T05:56:10;4.37;;;3.80;;
11010;SDS011;5558;42.702;23.178;2022-10-16T05:58:37;5.03;;;3.80;;
11010;SDS011;5558;42.702;23.178;2022-10-16T06:01:06;4.47;;;3.83;;
11010;SDS011;5558;42.702;23.178;2022-10-16T06:03:35;4.13;;;3.50;;
11010;SDS011;5558;42.702;23.178;2022-10-16T06:06:07;4.43;;;3.87;;
11010;SDS011;5558;42.702;23.178;2022-10-16T06:08:34;3.87;;;3.47;;
11010;SDS011;5558;42.702;23.178;2022-10-16T06:11:01;4.83;;;3.90;;
11010;SDS011;5558;42.702;23.178;2022-10-16T06:13:29;4.93;;;3.67;;
11010;SDS011;5558;42.702;23.178;2022-10-16T06:15:57;5.43;;;4.40;;
11010;SDS011;5558;42.702;23.178;2022-10-16T06:18:24;4.37;;;3.97;;
11010;SDS011;5558;42.702;23.178;2022-10-16T06:20:52;4.67;;;4.27;;
11010;SDS011;5558;42.702;23.178;2022-10-16T06:23:18;4.90;;;4.40;;
11010;SDS011;5558;42.702;23.178;2022-10-16T06:25:45;4.60;;;4.20;;
11010;SDS011;5558;42.702;23.178;2022-10-16T06:28:12;5.13;;;4.63;;
11010;SDS011;5558;42.702;23.178;2022-10-16T06:30:41;6.07;;;4.27;;
11010;SDS011;5558;42.702;23.178;2022-10-16T06:33:08;6.07;;;5.00;;
11010;SDS011;5558;42.702;23.178;2022-10-16T06:35:35;5.20;;;4.60;;
11010;SDS011;5558;42.702;23.178;2022-10-16T06:38:02;5.57;;;4.70;;
11010;SDS011;5558;42.702;23.178;2022-10-16T06:40:29;5.90;;;5.30;;
11010;SDS011;5558;42.702;23.178;2022-10-16T06:42:55;5.83;;;5.23;;
11010;SDS011;5558;42.702;23.178;2022-10-16T06:45:22;6.57;;;5.27;;
11010;SDS011;5558;42.702;23.178;2022-10-16T06:47:50;8.57;;;5.80;;
11010;SDS011;5558;42.702;23.178;2022-10-16T06:50:17;10.90;;;6.73;;
11010;SDS011;5558;42.702;23.178;2022-10-16T06:52:44;5.47;;;4.90;;
11010;SDS011;5558;42.702;23.178;2022-10-16T06:55:10;5.93;;;5.33;;
11010;SDS011;5558;42.702;23.178;2022-10-16T06:57:37;6.10;;;5.47;;
11010;SDS011;5558;42.702;23.178;2022-10-16T07:00:04;6.50;;;5.27;;
11010;SDS011;5558;42.702;23.178;2022-10-16T07:02:32;5.93;;;4.80;;
11010;SDS011;5558;42.702;23.178;2022-10-16T07:05:01;5.70;;;5.10;;
11010;SDS011;5558;42.702;23.178;2022-10-16T07:07:27;6.70;;;5.57;;
11010;SDS011;5558;42.702;23.178;2022-10-16T07:09:54;6.80;;;5.80;;
11010;SDS011;5558;42.702;23.178;2022-10-16T07:12:21;7.53;;;5.80;;
11010;SDS011;5558;42.702;23.178;2022-10-16T07:14:48;6.70;;;6.00;;
11010;SDS011;5558;42.702;23.178;2022-10-16T07:17:17;7.03;;;6.33;;
11010;SDS011;5558;42.702;23.178;2022-10-16T07:19:44;9.60;;;6.37;;
11010;SDS011;5558;42.702;23.178;2022-10-16T07:22:12;7.57;;;6.87;;
11010;SDS011;5558;42.702;23.178;2022-10-16T07:24:39;8.40;;;7.43;;
11010;SDS011;5558;42.702;23.178;2022-10-16T07:27:06;9.63;;;7.47;;
11010;SDS011;5558;42.702;23.178;2022-10-16T07:29:32;9.30;;;8.13;;
11010;SDS011;5558;42.702;23.178;2022-10-16T07:31:59;8.70;;;7.80;;
11010;SDS011;5558;42.702;23.178;2022-10-16T07:34:26;9.93;;;8.60;;
11010;SDS011;5558;42.702;23.178;2022-10-16T07:36:52;11.00;;;8.57;;
11010;SDS011;5558;42.702;23.178;2022-10-16T07:39:20;9.17;;;8.10;;
11010;SDS011;5558;42.702;23.178;2022-10-16T07:41:47;10.60;;;8.80;;
11010;SDS011;5558;42.702;23.178;2022-10-16T07:44:15;9.70;;;8.70;;
11010;SDS011;5558;42.702;23.178;2022-10-16T07:46:42;10.90;;;9.10;;
11010;SDS011;5558;42.702;23.178;2022-10-16T07:49:09;10.23;;;9.17;;
11010;SDS011;5558;42.702;23.178;2022-10-16T07:51:35;11.83;;;10.63;;
11010;SDS011;5558;42.702;23.178;2022-10-16T07:54:03;11.57;;;10.37;;
11010;SDS011;5558;42.702;23.178;2022-10-16T07:56:32;12.70;;;11.20;;
11010;SDS011;5558;42.702;23.178;2022-10-16T07:58:58;12.03;;;10.83;;
11010;SDS011;5558;42.702;23.178;2022-10-16T08:01:25;12.33;;;10.77;;
11010;SDS011;5558;42.702;23.178;2022-10-16T08:03:52;13.63;;;10.90;;
11010;SDS011;5558;42.702;23.178;2022-10-16T08:06:20;13.23;;;11.30;;
11010;SDS011;5558;42.702;23.178;2022-10-16T08:08:48;15.63;;;11.50;;
11010;SDS011;5558;42.702;23.178;2022-10-16T08:11:14;10.67;;;9.57;;
11010;SDS011;5558;42.702;23.178;2022-10-16T08:13:42;10.27;;;9.00;;
11010;SDS011;5558;42.702;23.178;2022-10-16T08:16:09;10.27;;;9.20;;
11010;SDS011;5558;42.702;23.178;2022-10-16T08:18:36;11.00;;;9.10;;
11010;SDS011;5558;42.702;23.178;2022-10-16T08:21:05;10.67;;;9.20;;
11010;SDS011;5558;42.702;23.178;2022-10-16T08:23:33;10.93;;;9.13;;
11010;SDS011;5558;42.702;23.178;2022-10-16T08:26:02;9.40;;;8.40;;
11010;SDS011;5558;42.702;23.178;2022-10-16T08:28:31;9.03;;;7.80;;
11010;SDS011;5558;42.702;23.178;2022-10-16T08:31:05;7.77;;;6.53;;
11010;SDS011;5558;42.702;23.178;2022-10-16T08:33:33;9.30;;;7.10;;
11010;SDS011;5558;42.702;23.178;2022-10-16T08:36:01;6.80;;;6.10;;
11010;SDS011;5558;42.702;23.178;2022-10-16T08:38:28;6.80;;;5.30;;
11010;SDS011;5558;42.702;23.178;2022-10-16T08:40:55;6.43;;;5.63;;
11010;SDS011;5558;42.702;23.178;2022-10-16T08:46:36;7.87;;;6.07;;
11010;SDS011;5558;42.702;23.178;2022-10-16T08:49:13;10.00;;;5.97;;
11010;SDS011;5558;42.702;23.178;2022-10-16T08:51:40;6.53;;;5.40;;
11010;SDS011;5558;42.702;23.178;2022-10-16T08:54:11;5.57;;;4.97;;
11010;SDS011;5558;42.702;23.178;2022-10-16T08:56:53;6.67;;;4.90;;
11010;SDS011;5558;42.702;23.178;2022-10-16T08:59:20;5.17;;;4.67;;
11010;SDS011;5558;42.702;23.178;2022-10-16T09:01:49;5.20;;;4.70;;
11010;SDS011;5558;42.702;23.178;2022-10-16T09:07:21;5.80;;;4.20;;
11010;SDS011;5558;42.702;23.178;2022-10-16T09:09:59;5.40;;;4.77;;
11010;SDS011;5558;42.702;23.178;2022-10-16T09:12:36;5.87;;;4.77;;
11010;SDS011;5558;42.702;23.178;2022-10-16T09:15:13;4.63;;;3.87;;
11010;SDS011;5558;42.702;23.178;2022-10-16T09:17:51;5.87;;;4.63;;
11010;SDS011;5558;42.702;23.178;2022-10-16T09:20:27;5.10;;;4.30;;
11010;SDS011;5558;42.702;23.178;2022-10-16T09:23:14;5.07;;;4.57;;
11010;SDS011;5558;42.702;23.178;2022-10-16T09:25:44;3.93;;;3.53;;
11010;SDS011;5558;42.702;23.178;2022-10-16T09:28:14;3.70;;;3.40;;
11010;SDS011;5558;42.702;23.178;2022-10-16T09:30:41;6.13;;;3.67;;
11010;SDS011;5558;42.702;23.178;2022-10-16T09:33:10;4.57;;;3.40;;
11010;SDS011;5558;42.702;23.178;2022-10-16T09:35:40;4.30;;;3.30;;
11010;SDS011;5558;42.702;23.178;2022-10-16T09:38:09;3.90;;;3.20;;
11010;SDS011;5558;42.702;23.178;2022-10-16T09:40:47;3.47;;;3.10;;
11010;SDS011;5558;42.702;23.178;2022-10-16T09:43:21;3.87;;;3.40;;
11010;SDS011;5558;42.702;23.178;2022-10-16T09:45:53;3.93;;;3.53;;
11010;SDS011;5558;42.702;23.178;2022-10-16T09:48:22;4.37;;;3.37;;
11010;SDS011;5558;42.702;23.178;2022-10-16T09:50:56;3.57;;;3.20;;
11010;SDS011;5558;42.702;23.178;2022-10-16T09:53:25;4.40;;;3.33;;
11010;SDS011;5558;42.702;23.178;2022-10-16T09:56:03;3.80;;;3.20;;
11010;SDS011;5558;42.702;23.178;2022-10-16T09:58:31;3.83;;;3.30;;
11010;SDS011;5558;42.702;23.178;2022-10-16T10:00:58;3.60;;;3.03;;
11010;SDS011;5558;42.702;23.178;2022-10-16T10:03:33;3.67;;;3.37;;
11010;SDS011;5558;42.702;23.178;2022-10-16T10:06:04;3.13;;;2.83;;
11010;SDS011;5558;42.702;23.178;2022-10-16T10:08:41;4.03;;;3.10;;
11010;SDS011;5558;42.702;23.178;2022-10-16T10:16:42;4.10;;;3.37;;
11010;SDS011;5558;42.702;23.178;2022-10-16T10:19:13;3.77;;;3.07;;
11010;SDS011;5558;42.702;23.178;2022-10-16T10:21:42;3.10;;;2.80;;
11010;SDS011;5558;42.702;23.178;2022-10-16T10:24:10;3.30;;;3.00;;
11010;SDS011;5558;42.702;23.178;2022-10-16T10:26:37;2.90;;;2.53;;
11010;SDS011;5558;42.702;23.178;2022-10-16T10:29:09;3.67;;;2.83;;
11010;SDS011;5558;42.702;23.178;2022-10-16T10:31:47;3.97;;;2.70;;
11010;SDS011;5558;42.702;23.178;2022-10-16T10:34:25;3.20;;;2.80;;
11010;SDS011;5558;42.702;23.178;2022-10-16T10:37:02;3.40;;;2.80;;
11010;SDS011;5558;42.702;23.178;2022-10-16T10:39:35;3.67;;;2.80;;
11010;SDS011;5558;42.702;23.178;2022-10-16T10:42:11;3.53;;;2.90;;
11010;SDS011;5558;42.702;23.178;2022-10-16T10:44:57;3.63;;;2.70;;
11010;SDS011;5558;42.702;23.178;2022-10-16T10:48:03;3.87;;;2.60;;
11010;SDS011;5558;42.702;23.178;2022-10-16T10:50:43;2.83;;;2.50;;
11010;SDS011;5558;42.702;23.178;2022-10-16T10:53:21;2.60;;;2.40;;
11010;SDS011;5558;42.702;23.178;2022-10-16T10:55:58;2.70;;;2.50;;
11010;SDS011;5558;42.702;23.178;2022-10-16T10:58:50;2.70;;;2.50;;
11010;SDS011;5558;42.702;23.178;2022-10-16T11:01:45;2.90;;;2.60;;
11010;SDS011;5558;42.702;23.178;2022-10-16T11:04:27;2.87;;;2.40;;
11010;SDS011;5558;42.702;23.178;2022-10-16T11:07:17;4.63;;;3.00;;
11010;SDS011;5558;42.702;23.178;2022-10-16T11:09:49;4.60;;;3.30;;
11010;SDS011;5558;42.702;23.178;2022-10-16T11:12:20;3.90;;;2.40;;
11010;SDS011;5558;42.702;23.178;2022-10-16T11:14:50;3.90;;;3.27;;
11010;SDS011;5558;42.702;23.178;2022-10-16T11:17:25;3.40;;;3.00;;
11010;SDS011;5558;42.702;23.178;2022-10-16T11:19:56;4.83;;;3.40;;
11010;SDS011;5558;42.702;23.178;2022-10-16T11:22:30;4.30;;;2.80;;
11010;SDS011;5558;42.702;23.178;2022-10-16T11:25:02;4.53;;;2.93;;
11010;SDS011;5558;42.702;23.178;2022-10-16T11:27:40;4.20;;;3.20;;
11010;SDS011;5558;42.702;23.178;2022-10-16T11:30:13;4.13;;;2.97;;
11010;SDS011;5558;42.702;23.178;2022-10-16T11:32:50;4.03;;;2.60;;
11010;SDS011;5558;42.702;23.178;2022-10-16T11:35:30;4.47;;;2.70;;
11010;SDS011;5558;42.702;23.178;2022-10-16T11:38:07;2.73;;;2.40;;
11010;SDS011;5558;42.702;23.178;2022-10-16T11:40:41;2.90;;;2.70;;
11010;SDS011;5558;42.702;23.178;2022-10-16T11:43:13;3.60;;;3.07;;
11010;SDS011;5558;42.702;23.178;2022-10-16T11:45:46;3.57;;;2.67;;
11010;SDS011;5558;42.702;23.178;2022-10-16T11:48:18;4.23;;;3.00;;
11010;SDS011;5558;42.702;23.178;2022-10-16T11:50:52;4.10;;;2.80;;
11010;SDS011;5558;42.702;23.178;2022-10-16T11:53:27;3.10;;;2.57;;
11010;SDS011;5558;42.702;23.178;2022-10-16T11:56:03;2.63;;;2.43;;
11010;SDS011;5558;42.702;23.178;2022-10-16T11:58:31;2.77;;;2.57;;
11010;SDS011;5558;42.702;23.178;2022-10-16T12:01:06;10.17;;;2.50;;
11010;SDS011;5558;42.702;23.178;2022-10-16T12:03:45;3.40;;;2.87;;
11010;SDS011;5558;42.702;23.178;2022-10-16T12:06:25;2.93;;;2.60;;
11010;SDS011;5558;42.702;23.178;2022-10-16T12:08:59;2.93;;;2.60;;
11010;SDS011;5558;42.702;23.178;2022-10-16T12:11:32;3.07;;;2.63;;
11010;SDS011;5558;42.702;23.178;2022-10-16T12:14:18;2.70;;;2.40;;
11010;SDS011;5558;42.702;23.178;2022-10-16T12:16:51;2.57;;;2.37;;
11010;SDS011;5558;42.702;23.178;2022-10-16T12:19:20;2.37;;;2.17;;
11010;SDS011;5558;42.702;23.178;2022-10-16T12:21:48;2.40;;;2.20;;
11010;SDS011;5558;42.702;23.178;2022-10-16T12:24:27;2.10;;;1.90;;
11010;SDS011;5558;42.702;23.178;2022-10-16T12:27:00;3.37;;;2.13;;
11010;SDS011;5558;42.702;23.178;2022-10-16T12:29:37;2.40;;;2.20;;
11010;SDS011;5558;42.702;23.178;2022-10-16T12:32:18;2.57;;;2.00;;
11010;SDS011;5558;42.702;23.178;2022-10-16T12:34:52;3.13;;;2.00;;
11010;SDS011;5558;42.702;23.178;2022-10-16T12:37:19;3.37;;;2.10;;
11010;SDS011;5558;42.702;23.178;2022-10-16T12:39:50;3.30;;;2.40;;
11010;SDS011;5558;42.702;23.178;2022-10-16T12:42:39;3.27;;;2.40;;
11010;SDS011;5558;42.702;23.178;2022-10-16T12:45:21;3.53;;;2.40;;
11010;SDS011;5558;42.702;23.178;2022-10-16T12:47:53;2.53;;;2.10;;
11010;SDS011;5558;42.702;23.178;2022-10-16T12:50:28;4.03;;;2.47;;
11010;SDS011;5558;42.702;23.178;2022-10-16T12:52:57;2.40;;;2.20;;
11010;SDS011;5558;42.702;23.178;2022-10-16T12:55:26;2.50;;;2.30;;
11010;SDS011;5558;42.702;23.178;2022-10-16T12:58:00;2.30;;;2.10;;
11010;SDS011;5558;42.702;23.178;2022-10-16T13:00:36;3.20;;;2.27;;
11010;SDS011;5558;42.702;23.178;2022-10-16T13:06:17;2.20;;;2.00;;
11010;SDS011;5558;42.702;23.178;2022-10-16T13:08:54;2.53;;;2.30;;
11010;SDS011;5558;42.702;23.178;2022-10-16T13:11:45;2.60;;;2.10;;
11010;SDS011;5558;42.702;23.178;2022-10-16T13:14:44;2.40;;;2.20;;
11010;SDS011;5558;42.702;23.178;2022-10-16T13:17:28;2.33;;;2.13;;
11010;SDS011;5558;42.702;23.178;2022-10-16T13:20:05;2.57;;;2.10;;
11010;SDS011;5558;42.702;23.178;2022-10-16T13:22:39;3.07;;;2.20;;
11010;SDS011;5558;42.702;23.178;2022-10-16T13:25:16;2.20;;;2.00;;
11010;SDS011;5558;42.702;23.178;2022-10-16T13:27:51;2.50;;;2.20;;
11010;SDS011;5558;42.702;23.178;2022-10-16T13:30:21;2.87;;;1.87;;
11010;SDS011;5558;42.702;23.178;2022-10-16T13:32:53;2.30;;;2.10;;
11010;SDS011;5558;42.702;23.178;2022-10-16T13:35:26;3.03;;;1.90;;
11010;SDS011;5558;42.702;23.178;2022-10-16T13:38:05;2.30;;;1.73;;
11010;SDS011;5558;42.702;23.178;2022-10-16T13:40:47;2.30;;;2.10;;
11010;SDS011;5558;42.702;23.178;2022-10-16T13:43:16;3.70;;;2.00;;
11010;SDS011;5558;42.702;23.178;2022-10-16T13:45:52;2.30;;;1.83;;
11010;SDS011;5558;42.702;23.178;2022-10-16T13:48:19;2.23;;;2.03;;
11010;SDS011;5558;42.702;23.178;2022-10-16T13:50:46;3.17;;;2.00;;
11010;SDS011;5558;42.702;23.178;2022-10-16T13:53:24;1.70;;;1.60;;
11010;SDS011;5558;42.702;23.178;2022-10-16T13:55:51;3.20;;;2.10;;
11010;SDS011;5558;42.702;23.178;2022-10-16T13:58:19;2.23;;;2.03;;
11010;SDS011;5558;42.702;23.178;2022-10-16T14:00:53;2.93;;;1.93;;
11010;SDS011;5558;42.702;23.178;2022-10-16T14:03:21;1.93;;;1.73;;
11010;SDS011;5558;42.702;23.178;2022-10-16T14:05:49;2.17;;;1.83;;
11010;SDS011;5558;42.702;23.178;2022-10-16T14:08:18;2.03;;;1.80;;
11010;SDS011;5558;42.702;23.178;2022-10-16T14:10:47;2.27;;;2.00;;
11010;SDS011;5558;42.702;23.178;2022-10-16T14:13:16;2.17;;;1.80;;
11010;SDS011;5558;42.702;23.178;2022-10-16T14:15:46;2.50;;;2.00;;
11010;SDS011;5558;42.702;23.178;2022-10-16T14:18:17;2.60;;;1.87;;
11010;SDS011;5558;42.702;23.178;2022-10-16T14:20:46;2.13;;;1.90;;
11010;SDS011;5558;42.702;23.178;2022-10-16T14:23:22;3.10;;;1.90;;
11010;SDS011;5558;42.702;23.178;2022-10-16T14:25:51;2.23;;;1.90;;
11010;SDS011;5558;42.702;23.178;2022-10-16T14:28:20;2.00;;;1.70;;
11010;SDS011;5558;42.702;23.178;2022-10-16T14:30:52;1.73;;;1.63;;
11010;SDS011;5558;42.702;23.178;2022-10-16T14:33:21;2.60;;;1.90;;
11010;SDS011;5558;42.702;23.178;2022-10-16T14:36:00;2.03;;;1.80;;
11010;SDS011;5558;42.702;23.178;2022-10-16T14:38:29;1.80;;;1.70;;
11010;SDS011;5558;42.702;23.178;2022-10-16T14:40:57;2.40;;;1.80;;
11010;SDS011;5558;42.702;23.178;2022-10-16T14:43:29;2.70;;;1.90;;
11010;SDS011;5558;42.702;23.178;2022-10-16T14:45:59;2.20;;;1.83;;
11010;SDS011;5558;42.702;23.178;2022-10-16T14:48:27;2.63;;;1.90;;
11010;SDS011;5558;42.702;23.178;2022-10-16T14:50:54;2.30;;;1.80;;
11010;SDS011;5558;42.702;23.178;2022-10-16T14:53:22;2.20;;;1.97;;
11010;SDS011;5558;42.702;23.178;2022-10-16T14:55:48;2.23;;;1.80;;
11010;SDS011;5558;42.702;23.178;2022-10-16T14:58:15;2.83;;;1.80;;
11010;SDS011;5558;42.702;23.178;2022-10-16T15:00:45;3.23;;;2.00;;
11010;SDS011;5558;42.702;23.178;2022-10-16T15:03:12;2.27;;;2.00;;
11010;SDS011;5558;42.702;23.178;2022-10-16T15:05:39;2.30;;;2.10;;
11010;SDS011;5558;42.702;23.178;2022-10-16T15:08:06;2.30;;;2.10;;
11010;SDS011;5558;42.702;23.178;2022-10-16T15:10:35;2.50;;;2.30;;
11010;SDS011;5558;42.702;23.178;2022-10-16T15:13:05;2.83;;;2.20;;
11010;SDS011;5558;42.702;23.178;2022-10-16T15:15:33;2.20;;;2.00;;
11010;SDS011;5558;42.702;23.178;2022-10-16T15:18:04;3.03;;;2.10;;
11010;SDS011;5558;42.702;23.178;2022-10-16T15:20:31;2.90;;;1.93;;
11010;SDS011;5558;42.702;23.178;2022-10-16T15:23:00;2.23;;;2.03;;